createdAt,value
2024-04-06T00:01:54.883Z,11.50
2024-04-06T00:04:22.821Z,11.80
2024-04-06T00:06:50.838Z,12.10
2024-04-06T00:09:18.434Z,15.50
2024-04-06T00:11:46.011Z,12.70
2024-04-06T00:14:15.120Z,12.50
2024-04-06T00:16:42.535Z,17.90
2024-04-06T00:19:09.955Z,12.80
2024-04-06T00:21:37.427Z,13.50
2024-04-06T00:24:06.095Z,16.80
2024-04-06T00:26:33.472Z,17.60
2024-04-06T00:29:01.241Z,18.40
2024-04-06T00:31:28.765Z,16.50
2024-04-06T00:33:58.055Z,12.50
2024-04-06T00:36:25.584Z,12.10
2024-04-06T00:38:52.996Z,14.10
2024-04-06T00:41:20.492Z,16.70
2024-04-06T00:43:47.905Z,13.60
2024-04-06T00:46:15.392Z,18.10
2024-04-06T00:48:42.838Z,12.70
2024-04-06T00:51:10.218Z,18.10
2024-04-06T00:53:37.934Z,15.80
2024-04-06T00:56:05.710Z,13.20
2024-04-06T00:58:33.107Z,20.10
2024-04-06T01:01:00.618Z,11.10
2024-04-06T01:03:28.037Z,11.20
2024-04-06T01:05:55.468Z,18.90
2024-04-06T01:08:23.006Z,15.00
2024-04-06T01:10:50.433Z,9.00
2024-04-06T01:13:17.874Z,7.30
2024-04-06T01:15:46.231Z,9.20
2024-04-06T01:18:13.685Z,7.30
2024-04-06T01:20:44.890Z,10.30
2024-04-06T01:23:13.437Z,11.70
2024-04-06T01:25:41.088Z,13.60
2024-04-06T01:28:08.513Z,11.00
2024-04-06T01:30:37.517Z,10.10
2024-04-06T01:33:05.067Z,9.80
2024-04-06T01:35:32.456Z,13.20
2024-04-06T01:37:59.884Z,9.80
2024-04-06T01:40:28.827Z,9.10
2024-04-06T01:42:56.789Z,10.10
2024-04-06T01:45:24.198Z,11.80
2024-04-06T01:47:51.604Z,18.20
2024-04-06T01:50:19.158Z,17.30
2024-04-06T01:52:46.554Z,10.50
2024-04-06T01:55:14.220Z,13.40
2024-04-06T01:57:41.721Z,15.10
2024-04-06T02:00:09.730Z,16.30
2024-04-06T02:02:40.301Z,16.60
2024-04-06T02:05:07.850Z,27.90
2024-04-06T02:07:35.287Z,27.00
2024-04-06T02:10:02.746Z,25.80
2024-04-06T02:12:30.277Z,34.90
2024-04-06T02:14:57.895Z,39.80
2024-04-06T02:17:25.934Z,27.90
2024-04-06T02:19:53.466Z,22.20
2024-04-06T02:22:20.882Z,31.50
2024-04-06T02:24:48.285Z,28.30
2024-04-06T02:27:15.802Z,40.60
2024-04-06T02:29:43.212Z,47.30
2024-04-06T02:32:10.602Z,46.50
2024-04-06T02:34:38.050Z,45.20
2024-04-06T02:37:05.575Z,38.90
2024-04-06T02:39:33.186Z,39.40
2024-04-06T02:42:00.577Z,15.90
2024-04-06T02:44:28.175Z,33.10
2024-04-06T02:46:55.711Z,32.20
2024-04-06T02:49:23.131Z,22.60
2024-04-06T02:51:50.527Z,37.40
2024-04-06T02:54:17.993Z,30.60
2024-04-06T02:56:45.489Z,25.30
2024-04-06T02:59:12.965Z,29.70
2024-04-06T03:01:40.429Z,24.20
2024-04-06T03:04:07.893Z,25.50
2024-04-06T03:06:35.340Z,25.20
2024-04-06T03:09:02.854Z,25.60
2024-04-06T03:11:30.624Z,28.40
2024-04-06T03:13:58.125Z,107.00
2024-04-06T03:16:25.677Z,187.00
2024-04-06T03:18:53.140Z,111.30
2024-04-06T03:21:22.181Z,130.50
2024-04-06T03:23:49.812Z,90.30
2024-04-06T03:26:17.348Z,76.90
2024-04-06T03:28:44.871Z,52.50
2024-04-06T03:31:12.446Z,60.70
2024-04-06T03:33:39.830Z,66.10
2024-04-06T03:36:07.353Z,48.10
2024-04-06T03:38:34.747Z,51.60
2024-04-06T03:41:02.217Z,41.80
2024-04-06T03:43:29.677Z,32.90
2024-04-06T03:45:57.030Z,23.70
2024-04-06T03:48:24.569Z,28.10
2024-04-06T03:50:52.038Z,22.80
2024-04-06T03:53:38.107Z,25.20
2024-04-06T03:56:06.241Z,26.70
2024-04-06T03:58:33.912Z,25.90
2024-04-06T04:02:47.205Z,35.40
2024-04-06T04:05:14.672Z,33.80
2024-04-06T04:07:42.218Z,24.50
2024-04-06T04:10:09.775Z,21.30
2024-04-06T04:12:37.279Z,23.00
2024-04-06T04:15:08.800Z,16.40
2024-04-06T04:17:36.336Z,20.30
2024-04-06T04:20:07.257Z,30.50
2024-04-06T04:22:34.868Z,21.30
2024-04-06T04:25:02.395Z,24.70
2024-04-06T04:27:31.641Z,23.20
2024-04-06T04:29:59.335Z,18.00
2024-04-06T04:32:27.005Z,20.60
2024-04-06T04:34:54.415Z,20.50
2024-04-06T04:37:21.853Z,24.50
2024-04-06T04:39:49.266Z,25.60
2024-04-06T04:42:16.773Z,23.40
2024-04-06T04:44:49.811Z,30.40
2024-04-06T04:47:26.115Z,31.90
2024-04-06T04:49:53.522Z,25.20
2024-04-06T04:52:21.034Z,26.70
2024-04-06T04:54:48.428Z,26.10
2024-04-06T04:57:15.859Z,25.40
2024-04-06T04:59:43.361Z,22.10
2024-04-06T05:02:10.875Z,36.10
2024-04-06T05:04:38.249Z,23.90
2024-04-06T05:07:05.680Z,22.00
2024-04-06T05:09:33.093Z,20.10
2024-04-06T05:12:00.601Z,17.90
2024-04-06T05:14:29.353Z,24.00
2024-04-06T05:16:56.759Z,16.10
2024-04-06T05:19:24.759Z,18.40
2024-04-06T05:21:52.246Z,15.80
2024-04-06T05:24:20.159Z,14.80
2024-04-06T05:26:47.831Z,11.40
2024-04-06T05:29:15.225Z,10.90
2024-04-06T05:31:42.622Z,14.30
2024-04-06T05:34:10.037Z,15.00
2024-04-06T05:36:37.460Z,13.30
2024-04-06T05:39:06.619Z,9.80
2024-04-06T05:41:34.026Z,14.60
2024-04-06T05:44:04.012Z,9.20
2024-04-06T05:46:33.034Z,11.90
2024-04-06T05:49:01.643Z,13.20
2024-04-06T05:51:29.263Z,14.90
2024-04-06T05:53:56.788Z,15.80
2024-04-06T05:56:24.299Z,18.30
2024-04-06T05:58:51.717Z,18.70
2024-04-06T06:01:19.264Z,14.40
2024-04-06T06:03:46.740Z,16.80
2024-04-06T06:06:15.097Z,17.10
2024-04-06T06:08:42.489Z,13.70
2024-04-06T06:11:09.917Z,11.50
2024-04-06T06:13:37.356Z,14.80
2024-04-06T06:16:05.084Z,10.10
2024-04-06T06:18:32.554Z,17.10
2024-04-06T06:21:04.592Z,14.60
2024-04-06T06:23:32.113Z,14.40
2024-04-06T06:25:59.714Z,16.40
2024-04-06T06:28:27.274Z,10.50
2024-04-06T06:30:54.812Z,13.30
2024-04-06T06:33:22.667Z,9.40
2024-04-06T06:38:26.893Z,10.50
2024-04-06T06:40:55.115Z,11.10
2024-04-06T06:43:22.626Z,10.70
2024-04-06T06:45:50.073Z,15.10
2024-04-06T06:48:17.447Z,9.90
2024-04-06T06:50:45.242Z,10.70
2024-04-06T06:53:12.607Z,9.70
2024-04-06T06:55:40.038Z,12.10
2024-04-06T06:58:07.577Z,7.80
2024-04-06T07:00:37.289Z,8.00
2024-04-06T07:03:05.383Z,7.00
2024-04-06T07:05:32.764Z,8.40
2024-04-06T07:08:00.204Z,7.40
2024-04-06T07:10:27.608Z,8.00
2024-04-06T07:12:55.115Z,7.90
2024-04-06T07:15:22.499Z,8.00
2024-04-06T07:17:50.082Z,7.80
2024-04-06T07:20:17.556Z,8.00
2024-04-06T07:22:45.006Z,12.50
2024-04-06T07:25:12.831Z,10.30
2024-04-06T07:27:40.478Z,5.50
2024-04-06T07:30:08.189Z,6.80
2024-04-06T07:32:35.781Z,5.80
2024-04-06T07:35:03.788Z,8.40
2024-04-06T07:37:31.564Z,13.30
2024-04-06T07:39:59.021Z,6.20
2024-04-06T07:42:26.638Z,7.20
2024-04-06T07:44:54.115Z,11.50
2024-04-06T07:47:21.591Z,5.40
2024-04-06T07:49:49.044Z,6.30
2024-04-06T07:52:16.439Z,6.80
2024-04-06T07:54:43.857Z,4.80
2024-04-06T07:57:11.323Z,6.00
2024-04-06T07:59:38.832Z,6.30
2024-04-06T08:02:06.428Z,5.50
2024-04-06T08:04:33.971Z,8.50
2024-04-06T08:07:03.697Z,12.70
2024-04-06T08:09:32.030Z,5.60
2024-04-06T08:11:59.685Z,12.90
2024-04-06T08:14:27.092Z,7.70
2024-04-06T08:16:54.602Z,5.80
2024-04-06T08:19:22.048Z,6.40
2024-04-06T08:21:49.558Z,11.70
2024-04-06T08:24:18.268Z,6.20
2024-04-06T08:26:46.412Z,6.50
2024-04-06T08:29:14.241Z,8.30
2024-04-06T08:31:41.790Z,8.40
2024-04-06T08:34:09.620Z,9.80
2024-04-06T08:36:37.328Z,7.00
2024-04-06T08:39:05.565Z,4.00
2024-04-06T08:41:33.007Z,4.90
2024-04-06T08:44:01.419Z,7.20
2024-04-06T08:46:28.946Z,5.80
2024-04-06T08:48:56.420Z,6.50
2024-04-06T08:51:24.926Z,4.30
2024-04-06T08:53:52.357Z,5.90
2024-04-06T08:56:19.876Z,7.20
2024-04-06T08:58:48.164Z,4.20
2024-04-06T09:01:15.853Z,3.80
2024-04-06T09:03:43.386Z,5.20
2024-04-06T09:06:19.522Z,3.90
2024-04-06T09:08:47.563Z,5.20
2024-04-06T09:11:15.079Z,4.80
2024-04-06T09:13:43.504Z,5.40
2024-04-06T09:16:11.295Z,6.60
2024-04-06T09:18:39.958Z,4.80
2024-04-06T09:21:07.512Z,6.10
2024-04-06T09:23:35.512Z,4.80
2024-04-06T09:26:03.813Z,5.30
2024-04-06T09:28:34.138Z,7.10
2024-04-06T09:31:01.701Z,8.00
2024-04-06T09:33:29.138Z,4.40
2024-04-06T09:35:56.590Z,7.20
2024-04-06T09:38:26.022Z,3.00
2024-04-06T09:40:53.728Z,8.00
2024-04-06T09:43:21.233Z,7.70
2024-04-06T09:45:48.745Z,3.00
2024-04-06T09:48:16.321Z,7.30
2024-04-06T09:50:44.187Z,4.40
2024-04-06T09:53:13.705Z,4.60
2024-04-06T09:55:41.783Z,8.10
2024-04-06T09:58:10.005Z,3.20
2024-04-06T10:00:37.646Z,3.60
2024-04-06T10:03:06.068Z,7.10
2024-04-06T10:05:43.930Z,8.80
2024-04-06T10:08:24.181Z,5.20
2024-04-06T10:10:53.354Z,12.70
2024-04-06T10:13:21.692Z,10.50
2024-04-06T10:15:49.170Z,4.70
2024-04-06T10:18:17.036Z,13.00
2024-04-06T10:20:44.593Z,9.20
2024-04-06T10:23:14.051Z,10.50
2024-04-06T10:25:41.585Z,9.20
2024-04-06T10:28:10.142Z,7.90
2024-04-06T10:30:38.983Z,6.80
2024-04-06T10:33:07.579Z,11.00
2024-04-06T10:35:35.222Z,14.00
2024-04-06T10:38:02.835Z,9.00
2024-04-06T10:40:35.301Z,9.80
2024-04-06T10:43:06.141Z,8.30
2024-04-06T10:45:34.719Z,5.40
2024-04-06T10:48:03.457Z,17.50
2024-04-06T10:50:30.913Z,6.80
2024-04-06T10:52:59.669Z,5.40
2024-04-06T10:55:28.791Z,11.60
2024-04-06T10:57:59.417Z,16.80
2024-04-06T11:00:27.811Z,5.10
2024-04-06T11:03:00.702Z,2.10
2024-04-06T11:05:28.293Z,2.20
2024-04-06T11:07:55.871Z,4.20
2024-04-06T11:10:23.638Z,2.60
2024-04-06T11:12:51.223Z,5.90
2024-04-06T11:15:18.755Z,3.40
2024-04-06T11:17:46.414Z,3.10
2024-04-06T11:20:14.035Z,3.90
2024-04-06T11:22:41.941Z,3.50
2024-04-06T11:25:16.141Z,6.20
2024-04-06T11:27:54.502Z,2.50
2024-04-06T11:30:22.021Z,3.80
2024-04-06T11:32:51.306Z,2.80
2024-04-06T11:35:19.278Z,4.30
2024-04-06T11:37:46.819Z,2.30
2024-04-06T11:40:15.361Z,4.00
2024-04-06T11:42:42.854Z,4.00
2024-04-06T11:45:10.313Z,4.60
2024-04-06T11:47:37.931Z,5.70
2024-04-06T11:50:05.951Z,2.50
2024-04-06T11:52:33.499Z,7.00
2024-04-06T11:55:01.025Z,1.80
2024-04-06T11:57:28.553Z,1.90
2024-04-06T11:59:55.959Z,1.90
2024-04-06T12:02:23.598Z,5.40
2024-04-06T12:04:51.066Z,1.30
2024-04-06T12:07:18.555Z,9.80
2024-04-06T12:09:46.125Z,9.90
2024-04-06T12:12:14.868Z,13.60
2024-04-06T12:14:42.393Z,10.90
2024-04-06T12:17:16.061Z,5.80
2024-04-06T12:19:43.636Z,9.30
2024-04-06T12:22:11.268Z,8.00
2024-04-06T12:24:41.462Z,5.00
2024-04-06T12:27:09.236Z,3.50
2024-04-06T12:29:36.704Z,3.60
2024-04-06T12:32:04.951Z,8.70
2024-04-06T12:34:32.512Z,5.70
2024-04-06T12:37:03.989Z,7.70
2024-04-06T12:39:31.540Z,10.30
2024-04-06T12:41:58.981Z,8.90
2024-04-06T12:44:26.614Z,32.40
2024-04-06T12:46:54.144Z,16.50
2024-04-06T12:49:21.685Z,10.90
2024-04-06T12:51:49.226Z,30.70
2024-04-06T12:54:16.798Z,12.20
2024-04-06T12:57:02.973Z,10.90
2024-04-06T12:59:30.461Z,4.90
2024-04-06T13:01:58.058Z,9.70
2024-04-06T13:04:25.583Z,6.30
2024-04-06T13:06:53.100Z,4.70
2024-04-06T13:09:22.103Z,5.20
2024-04-06T13:11:49.563Z,3.40
2024-04-06T13:14:17.017Z,5.60
2024-04-06T13:16:44.516Z,3.40
2024-04-06T13:19:12.049Z,6.30
2024-04-06T13:21:42.802Z,2.70
2024-04-06T13:24:13.210Z,3.40
2024-04-06T13:26:40.852Z,2.50
2024-04-06T13:29:10.442Z,2.80
2024-04-06T13:31:37.872Z,1.30
2024-04-06T13:34:07.648Z,3.20
2024-04-06T13:36:35.094Z,2.10
2024-04-06T13:39:07.501Z,2.10
2024-04-06T13:41:35.041Z,2.50
2024-04-06T13:44:03.148Z,8.60
2024-04-06T13:46:31.373Z,1.00
2024-04-06T13:48:58.861Z,5.90
2024-04-06T13:51:26.719Z,3.50
2024-04-06T13:53:54.221Z,2.70
2024-04-06T13:56:21.681Z,2.60
2024-04-06T13:58:50.667Z,1.80
2024-04-06T14:01:18.217Z,1.60
2024-04-06T14:03:45.717Z,1.40
2024-04-06T14:06:13.612Z,1.40
2024-04-06T14:08:41.685Z,1.80
2024-04-06T14:11:11.140Z,4.10
2024-04-06T14:13:40.988Z,2.10
2024-04-06T14:16:08.830Z,1.50
2024-04-06T14:18:36.528Z,3.10
2024-04-06T14:21:04.316Z,3.80
2024-04-06T14:23:31.773Z,1.80
2024-04-06T14:26:00.111Z,3.40
2024-04-06T14:28:28.511Z,3.50
2024-04-06T14:30:56.369Z,4.60
2024-04-06T14:33:23.846Z,1.30
2024-04-06T14:35:51.796Z,5.50
2024-04-06T14:38:19.333Z,3.40
2024-04-06T14:40:46.851Z,3.20
2024-04-06T14:43:16.941Z,2.00
2024-04-06T14:45:46.004Z,2.40
2024-04-06T14:48:13.671Z,2.00
2024-04-06T14:50:41.169Z,3.20
2024-04-06T14:53:09.043Z,2.10
2024-04-06T14:55:36.522Z,2.80
2024-04-06T14:58:04.177Z,4.10
2024-04-06T15:00:31.772Z,3.40
2024-04-06T15:02:59.392Z,4.70
2024-04-06T15:05:26.842Z,5.70
2024-04-06T15:07:54.698Z,3.80
2024-04-06T15:10:22.238Z,5.10
2024-04-06T15:12:49.912Z,2.10
2024-04-06T15:15:17.446Z,3.90
2024-04-06T15:17:44.891Z,2.40
2024-04-06T15:20:12.502Z,3.30
2024-04-06T15:22:40.695Z,2.10
2024-04-06T15:25:11.028Z,1.40
2024-04-06T15:27:39.783Z,1.30
2024-04-06T15:30:11.042Z,2.70
2024-04-06T15:32:40.314Z,3.00
2024-04-06T15:35:09.377Z,4.10
2024-04-06T15:37:36.895Z,3.40
2024-04-06T15:40:07.715Z,3.00
2024-04-06T15:42:35.225Z,3.30
2024-04-06T15:45:02.735Z,4.20
2024-04-06T15:47:30.357Z,4.10
2024-04-06T15:49:57.830Z,2.90
2024-04-06T15:52:25.365Z,5.90
2024-04-06T15:54:52.879Z,4.80
2024-04-06T15:57:21.228Z,5.40
2024-04-06T15:59:48.769Z,6.30
2024-04-06T16:02:16.397Z,3.30
2024-04-06T16:04:43.968Z,6.10
2024-04-06T16:07:11.754Z,5.00
2024-04-06T16:09:39.275Z,2.20
2024-04-06T16:12:07.114Z,3.20
2024-04-06T16:14:35.445Z,4.20
2024-04-06T16:17:04.094Z,5.70
2024-04-06T16:19:35.445Z,3.40
2024-04-06T16:22:04.512Z,4.80
2024-04-06T16:24:33.881Z,5.90
2024-04-06T16:27:01.356Z,3.60
2024-04-06T16:29:28.944Z,6.90
2024-04-06T16:31:56.561Z,3.60
2024-04-06T16:34:24.498Z,4.20
2024-04-06T16:36:52.207Z,5.70
2024-04-06T16:39:19.798Z,3.30
2024-04-06T16:41:47.398Z,5.90
2024-04-06T16:44:16.819Z,3.60
2024-04-06T16:46:44.355Z,6.70
2024-04-06T16:49:11.792Z,2.40
2024-04-06T16:51:39.416Z,4.70
2024-04-06T16:54:07.023Z,3.10
2024-04-06T16:56:34.498Z,6.00
2024-04-06T16:59:01.989Z,5.30
2024-04-06T17:01:29.548Z,6.20
2024-04-06T17:03:57.080Z,7.30
2024-04-06T17:06:24.586Z,5.70
2024-04-06T17:08:52.336Z,8.00
2024-04-06T17:11:20.128Z,6.10
2024-04-06T17:13:47.587Z,5.90
2024-04-06T17:16:15.279Z,7.50
2024-04-06T17:18:42.830Z,5.30
2024-04-06T17:21:10.569Z,5.10
2024-04-06T17:23:38.355Z,7.50
2024-04-06T17:26:05.938Z,11.20
2024-04-06T17:28:33.418Z,7.30
2024-04-06T17:31:01.013Z,5.90
2024-04-06T17:33:28.695Z,7.00
2024-04-06T17:35:56.206Z,8.10
2024-04-06T17:38:24.987Z,5.00
2024-04-06T17:40:52.597Z,6.50
2024-04-06T17:43:23.051Z,7.70
2024-04-06T17:45:50.536Z,5.60
2024-04-06T17:48:18.058Z,3.30
2024-04-06T17:50:45.521Z,3.50
2024-04-06T17:53:12.965Z,4.00
2024-04-06T17:55:41.094Z,3.70
2024-04-06T17:58:13.989Z,5.50
2024-04-06T18:00:50.618Z,2.80
2024-04-06T18:03:19.757Z,3.40
2024-04-06T18:05:47.814Z,6.80
2024-04-06T18:08:15.377Z,3.10
2024-04-06T18:10:42.851Z,11.10
2024-04-06T18:13:10.575Z,14.70
2024-04-06T18:15:38.177Z,15.90
2024-04-06T18:18:05.774Z,10.40
2024-04-06T18:20:33.404Z,5.40
2024-04-06T18:23:00.894Z,6.70
2024-04-06T18:25:28.422Z,5.20
2024-04-06T18:27:55.866Z,3.80
2024-04-06T18:30:23.320Z,2.70
2024-04-06T18:32:50.926Z,4.70
2024-04-06T18:35:18.537Z,3.90
2024-04-06T18:37:46.100Z,4.40
2024-04-06T18:40:13.963Z,3.10
2024-04-06T18:42:42.961Z,4.80
2024-04-06T18:45:13.233Z,1.80
2024-04-06T18:47:42.220Z,6.00
2024-04-06T18:50:10.029Z,1.30
2024-04-06T18:52:37.546Z,2.50
2024-04-06T18:55:05.567Z,3.00
2024-04-06T18:57:33.027Z,2.00
2024-04-06T19:00:01.458Z,4.00
2024-04-06T19:02:28.952Z,4.60
2024-04-06T19:04:56.527Z,2.20
2024-04-06T19:07:24.586Z,4.00
2024-04-06T19:09:52.049Z,2.10
2024-04-06T19:12:19.910Z,3.10
2024-04-06T19:14:47.374Z,2.60
2024-04-06T19:17:14.902Z,3.30
2024-04-06T19:19:43.099Z,5.70
2024-04-06T19:22:10.645Z,3.80
2024-04-06T19:24:38.267Z,6.70
2024-04-06T19:27:05.759Z,1.50
2024-04-06T19:29:33.197Z,3.30
2024-04-06T19:32:00.692Z,2.20
2024-04-06T19:34:28.208Z,2.80
2024-04-06T19:36:55.721Z,2.60
2024-04-06T19:39:23.315Z,3.50
2024-04-06T19:41:50.812Z,2.70
2024-04-06T19:44:18.447Z,4.00
2024-04-06T19:46:49.575Z,3.60
2024-04-06T19:49:17.321Z,2.70
2024-04-06T19:51:44.902Z,2.30
2024-04-06T19:54:12.403Z,2.20
2024-04-06T19:56:39.925Z,3.00
2024-04-06T19:59:07.370Z,2.20
2024-04-06T20:01:34.922Z,4.80
2024-04-06T20:04:02.662Z,2.60
2024-04-06T20:06:30.892Z,4.30
2024-04-06T20:09:17.019Z,2.10
2024-04-06T20:11:44.585Z,4.00
2024-04-06T20:14:12.194Z,3.50
2024-04-06T20:16:39.757Z,3.60
2024-04-06T20:19:07.711Z,5.20
2024-04-06T20:21:35.429Z,2.90
2024-04-06T20:24:21.699Z,3.40
2024-04-06T20:26:49.396Z,2.90
2024-04-06T20:29:17.012Z,2.40
2024-04-06T20:31:44.581Z,2.30
2024-04-06T20:34:12.292Z,2.80
2024-04-06T20:36:40.188Z,4.10
2024-04-06T20:39:10.609Z,2.50
2024-04-06T20:41:38.095Z,5.40
2024-04-06T20:44:05.657Z,2.40
2024-04-06T20:46:33.237Z,1.80
2024-04-06T20:49:00.785Z,2.50
2024-04-06T20:51:28.269Z,2.70
2024-04-06T20:53:55.696Z,5.10
2024-04-06T20:56:23.455Z,7.70
2024-04-06T20:58:50.972Z,2.40
2024-04-06T21:01:18.477Z,2.70
2024-04-06T21:03:46.024Z,4.00
2024-04-06T21:06:13.548Z,2.20
2024-04-06T21:08:44.802Z,2.20
2024-04-06T21:11:12.336Z,1.50
2024-04-06T21:13:39.881Z,2.20
2024-04-06T21:16:07.339Z,2.30
2024-04-06T21:18:35.552Z,2.50
2024-04-06T21:21:03.131Z,2.30
2024-04-06T21:23:30.577Z,6.80
2024-04-06T21:26:01.609Z,2.60
2024-04-06T21:28:29.755Z,3.50
2024-04-06T21:30:58.034Z,2.60
2024-04-06T21:33:25.681Z,1.10
2024-04-06T21:35:53.235Z,4.00
2024-04-06T21:38:21.024Z,1.40
2024-04-06T21:40:48.522Z,4.70
2024-04-06T21:43:16.009Z,3.50
2024-04-06T21:45:43.401Z,3.20
2024-04-06T21:48:10.884Z,2.60
2024-04-06T21:50:38.291Z,5.40
2024-04-06T21:53:05.752Z,3.70
2024-04-06T21:55:33.570Z,4.60
2024-04-06T21:58:00.982Z,3.90
2024-04-06T22:00:30.155Z,2.10
2024-04-06T22:02:57.578Z,3.50
2024-04-06T22:05:26.629Z,2.70
2024-04-06T22:07:54.107Z,1.70
2024-04-06T22:10:21.545Z,3.70
2024-04-06T22:12:48.987Z,4.30
2024-04-06T22:15:16.486Z,4.20
2024-04-06T22:17:43.978Z,1.90
2024-04-06T22:20:11.938Z,3.50
2024-04-06T22:22:39.427Z,3.00
2024-04-06T22:25:07.302Z,3.90
2024-04-06T22:27:34.765Z,3.30
2024-04-06T22:30:06.707Z,3.10
2024-04-06T22:32:34.240Z,2.70
2024-04-06T22:35:01.741Z,5.30
2024-04-06T22:37:31.960Z,3.40
2024-04-06T22:39:59.337Z,4.10
2024-04-06T22:42:27.621Z,2.50
2024-04-06T22:44:55.070Z,4.80
2024-04-06T22:47:22.515Z,2.00
2024-04-06T22:49:51.996Z,3.70
2024-04-06T22:52:19.431Z,6.90
2024-04-06T22:54:46.880Z,4.80
2024-04-06T22:57:14.369Z,6.70
2024-04-06T22:59:42.405Z,3.40
2024-04-06T23:02:09.830Z,2.30
2024-04-06T23:04:37.341Z,2.00
2024-04-06T23:07:04.998Z,4.40
2024-04-06T23:09:32.531Z,3.40
2024-04-06T23:11:59.972Z,10.80
2024-04-06T23:14:27.407Z,2.60
2024-04-06T23:16:55.166Z,4.30
2024-04-06T23:19:22.678Z,4.80
2024-04-06T23:21:50.163Z,5.60
2024-04-06T23:24:17.542Z,7.80
2024-04-06T23:26:45.331Z,3.40
2024-04-06T23:29:12.911Z,3.80
2024-04-06T23:31:41.081Z,3.50
2024-04-06T23:34:08.479Z,3.00
2024-04-06T23:36:36.465Z,10.00
2024-04-06T23:39:06.431Z,2.90
2024-04-06T23:41:33.846Z,5.10
2024-04-06T23:44:01.556Z,4.40
2024-04-06T23:46:29.192Z,5.60
2024-04-06T23:48:56.614Z,4.70
2024-04-06T23:51:24.027Z,5.20
2024-04-06T23:53:51.491Z,3.50
2024-04-06T23:56:18.943Z,2.60
2024-04-06T23:58:46.440Z,3.50
